Hutchinson County Airport - Borger, Texas, United States - FAA: BGD - ICAO: KBGD - IATA: BGD

 
  Longest Runway: 6,300 feet   Approach Types:    Customs Landing Rights Airport: No   Port of Entry: No

Local Forecast

This Afternoon (10/19): Mostly sunny, with a high near 79. South wind 10 to 15 mph, with gusts as high as 20 mph.

Tonight (10/19): Mostly cloudy, with a low around 59. South southeast wind around 15 mph, with gusts as high as 20 mph.

Friday (10/20): A 20 percent chance of showers and thunderstorms. Partly sunny, with a high near 78. Breezy, with a south wind 15 to 25 mph, with gusts as high as 35 mph.

Friday Night (10/20): Partly cloudy, with a low around 62. South wind 15 to 20 mph, with gusts as high as 25 mph.

Saturday (10/21): Mostly sunny, with a high near 76. South southwest wind 15 to 20 mph becoming north northwest in the afternoon.

Saturday Night (10/21): Partly cloudy, with a low around 43. North wind 15 to 20 mph decreasing to 5 to 10 mph after midnight.

Sunday (10/22): Sunny, with a high near 70. West northwest wind 5 to 10 mph.



Current Weather (METAR)

2017/10/19 17:51 KBGD 191751Z AUTO 21006KT 10SM CLR 23/09 A3007 RMK AO2 SLP151 T02330089 10233 20111 58008

BORGER HUTCHINSON CO AIRPORT , TX, United States (KBGD) 35-42N 101-24W 927M Oct 19, 2017 - 01:51 PM EDT / 2017.10.19 1751 UTC Wind: from the SSW (210 degrees) at 7 MPH (6 KT):0 Visibility: 10 mile(s):0 Sky conditions: clear Temperature: 73.9 F (23.3 C) Dew Point: 48.0 F (8.9 C) Relative Humidity: 39% Pressure (altimeter): 30.07 in. Hg (1018 hPa) Pressure tendency: 0.02 inches (0.8 hPa) lower than three hours ago ob: KBGD 191751Z AUTO 21006KT 10SM CLR 23/09 A3007 RMK AO2 SLP151 T02330089 10233 20111 58008 cycle: 18

Terminal Forecast (TAF)